sensor_id;sensor_type;location;lat;lon;timestamp;temperature;humidity
5461;DHT22;2753;49.196;8.286;2023-06-01T00:02:06;20.20;65.30
5461;DHT22;2753;49.196;8.286;2023-06-01T00:04:31;20.20;65.10
5461;DHT22;2753;49.196;8.286;2023-06-01T00:06:57;20.20;65.30
5461;DHT22;2753;49.196;8.286;2023-06-01T00:09:26;20.10;65.30
5461;DHT22;2753;49.196;8.286;2023-06-01T00:11:52;20.10;65.60
5461;DHT22;2753;49.196;8.286;2023-06-01T00:14:18;20.00;65.70
5461;DHT22;2753;49.196;8.286;2023-06-01T00:16:44;19.90;65.90
5461;DHT22;2753;49.196;8.286;2023-06-01T00:19:10;19.90;65.90
5461;DHT22;2753;49.196;8.286;2023-06-01T00:21:36;20.00;65.60
5461;DHT22;2753;49.196;8.286;2023-06-01T00:24:02;20.00;65.70
5461;DHT22;2753;49.196;8.286;2023-06-01T00:26:28;19.90;65.90
5461;DHT22;2753;49.196;8.286;2023-06-01T00:28:57;19.90;66.20
5461;DHT22;2753;49.196;8.286;2023-06-01T00:31:23;19.80;66.20
5461;DHT22;2753;49.196;8.286;2023-06-01T00:33:49;19.80;66.00
5461;DHT22;2753;49.196;8.286;2023-06-01T00:36:16;19.80;66.00
5461;DHT22;2753;49.196;8.286;2023-06-01T00:38:41;19.80;66.00
5461;DHT22;2753;49.196;8.286;2023-06-01T00:41:07;19.70;66.10
5461;DHT22;2753;49.196;8.286;2023-06-01T00:43:33;19.80;66.30
5461;DHT22;2753;49.196;8.286;2023-06-01T00:45:58;19.70;66.40
5461;DHT22;2753;49.196;8.286;2023-06-01T00:48:24;19.70;66.00
5461;DHT22;2753;49.196;8.286;2023-06-01T00:50:50;19.70;66.20
5461;DHT22;2753;49.196;8.286;2023-06-01T00:53:18;19.60;66.20
5461;DHT22;2753;49.196;8.286;2023-06-01T00:55:46;19.60;66.60
5461;DHT22;2753;49.196;8.286;2023-06-01T00:58:13;19.60;66.40
5461;DHT22;2753;49.196;8.286;2023-06-01T01:00:39;19.50;66.70
5461;DHT22;2753;49.196;8.286;2023-06-01T01:03:06;19.50;66.80
5461;DHT22;2753;49.196;8.286;2023-06-01T01:05:39;19.40;67.00
5461;DHT22;2753;49.196;8.286;2023-06-01T01:08:30;19.40;67.00
5461;DHT22;2753;49.196;8.286;2023-06-01T01:11:06;19.40;67.30
5461;DHT22;2753;49.196;8.286;2023-06-01T01:13:44;19.40;67.10
5461;DHT22;2753;49.196;8.286;2023-06-01T01:19:27;19.40;66.90
5461;DHT22;2753;49.196;8.286;2023-06-01T01:27:41;19.30;67.40
5461;DHT22;2753;49.196;8.286;2023-06-01T01:30:12;19.30;67.40
5461;DHT22;2753;49.196;8.286;2023-06-01T01:32:40;19.30;67.20
5461;DHT22;2753;49.196;8.286;2023-06-01T01:35:07;19.20;67.50
5461;DHT22;2753;49.196;8.286;2023-06-01T01:37:33;18.60;67.00
5461;DHT22;2753;49.196;8.286;2023-06-01T01:39:59;19.10;67.90
5461;DHT22;2753;49.196;8.286;2023-06-01T01:42:26;19.00;68.00
5461;DHT22;2753;49.196;8.286;2023-06-01T01:44:52;19.00;68.30
5461;DHT22;2753;49.196;8.286;2023-06-01T01:47:40;18.90;68.40
5461;DHT22;2753;49.196;8.286;2023-06-01T01:50:10;18.90;68.00
5461;DHT22;2753;49.196;8.286;2023-06-01T01:52:39;18.90;68.40
5461;DHT22;2753;49.196;8.286;2023-06-01T01:55:11;18.90;68.40
5461;DHT22;2753;49.196;8.286;2023-06-01T01:57:37;18.90;68.60
5461;DHT22;2753;49.196;8.286;2023-06-01T02:00:05;18.80;68.70
5461;DHT22;2753;49.196;8.286;2023-06-01T02:02:33;18.70;69.20
5461;DHT22;2753;49.196;8.286;2023-06-01T02:04:59;18.60;69.10
5461;DHT22;2753;49.196;8.286;2023-06-01T02:07:25;18.70;68.80
5461;DHT22;2753;49.196;8.286;2023-06-01T02:09:51;18.60;69.10
5461;DHT22;2753;49.196;8.286;2023-06-01T02:12:17;18.50;69.50
5461;DHT22;2753;49.196;8.286;2023-06-01T02:14:42;18.50;69.50
5461;DHT22;2753;49.196;8.286;2023-06-01T02:17:10;18.40;69.20
5461;DHT22;2753;49.196;8.286;2023-06-01T02:19:36;18.50;69.10
5461;DHT22;2753;49.196;8.286;2023-06-01T02:22:01;18.50;69.10
5461;DHT22;2753;49.196;8.286;2023-06-01T02:24:27;18.50;69.00
5461;DHT22;2753;49.196;8.286;2023-06-01T02:26:53;18.50;68.90
5461;DHT22;2753;49.196;8.286;2023-06-01T02:29:19;18.40;68.90
5461;DHT22;2753;49.196;8.286;2023-06-01T02:31:48;18.50;69.00
5461;DHT22;2753;49.196;8.286;2023-06-01T02:34:14;18.50;68.90
5461;DHT22;2753;49.196;8.286;2023-06-01T02:36:39;18.50;69.00
5461;DHT22;2753;49.196;8.286;2023-06-01T02:39:05;18.40;68.90
5461;DHT22;2753;49.196;8.286;2023-06-01T02:41:31;18.40;68.90
5461;DHT22;2753;49.196;8.286;2023-06-01T02:43:57;18.50;68.80
5461;DHT22;2753;49.196;8.286;2023-06-01T02:46:23;18.50;68.90
5461;DHT22;2753;49.196;8.286;2023-06-01T02:48:48;18.40;68.90
5461;DHT22;2753;49.196;8.286;2023-06-01T02:51:14;18.40;68.90
5461;DHT22;2753;49.196;8.286;2023-06-01T02:53:41;18.40;69.00
5461;DHT22;2753;49.196;8.286;2023-06-01T02:56:06;18.30;69.00
5461;DHT22;2753;49.196;8.286;2023-06-01T02:58:32;18.30;68.80
5461;DHT22;2753;49.196;8.286;2023-06-01T03:00:58;18.30;68.80
5461;DHT22;2753;49.196;8.286;2023-06-01T03:03:27;18.30;69.00
5461;DHT22;2753;49.196;8.286;2023-06-01T03:05:53;18.30;69.30
5461;DHT22;2753;49.196;8.286;2023-06-01T03:08:19;18.30;69.00
5461;DHT22;2753;49.196;8.286;2023-06-01T03:10:45;18.30;69.00
5461;DHT22;2753;49.196;8.286;2023-06-01T03:13:11;18.30;69.00
5461;DHT22;2753;49.196;8.286;2023-06-01T03:15:38;18.30;69.40
5461;DHT22;2753;49.196;8.286;2023-06-01T03:18:04;18.20;69.60
5461;DHT22;2753;49.196;8.286;2023-06-01T03:20:31;18.20;69.70
5461;DHT22;2753;49.196;8.286;2023-06-01T03:22:57;18.20;69.80
5461;DHT22;2753;49.196;8.286;2023-06-01T03:25:22;18.10;70.10
5461;DHT22;2753;49.196;8.286;2023-06-01T03:27:50;18.10;69.90
5461;DHT22;2753;49.196;8.286;2023-06-01T03:30:16;18.10;69.80
5461;DHT22;2753;49.196;8.286;2023-06-01T03:32:42;18.00;70.00
5461;DHT22;2753;49.196;8.286;2023-06-01T03:35:09;18.00;70.20
5461;DHT22;2753;49.196;8.286;2023-06-01T03:37:37;18.10;69.80
5461;DHT22;2753;49.196;8.286;2023-06-01T03:40:03;18.10;70.00
5461;DHT22;2753;49.196;8.286;2023-06-01T03:42:44;18.10;70.00
5461;DHT22;2753;49.196;8.286;2023-06-01T03:45:11;18.10;70.00
5461;DHT22;2753;49.196;8.286;2023-06-01T03:47:37;18.00;70.30
5461;DHT22;2753;49.196;8.286;2023-06-01T03:50:04;18.00;70.20
5461;DHT22;2753;49.196;8.286;2023-06-01T03:52:32;18.00;70.40
5461;DHT22;2753;49.196;8.286;2023-06-01T03:54:59;18.00;70.70
5461;DHT22;2753;49.196;8.286;2023-06-01T03:57:27;17.90;70.80
5461;DHT22;2753;49.196;8.286;2023-06-01T03:59:52;17.90;70.80
5461;DHT22;2753;49.196;8.286;2023-06-01T04:02:18;17.90;70.90
5461;DHT22;2753;49.196;8.286;2023-06-01T04:04:45;17.90;70.80
5461;DHT22;2753;49.196;8.286;2023-06-01T04:07:11;17.90;71.30
5461;DHT22;2753;49.196;8.286;2023-06-01T04:09:40;17.90;71.10
5461;DHT22;2753;49.196;8.286;2023-06-01T04:12:06;17.80;71.00
5461;DHT22;2753;49.196;8.286;2023-06-01T04:14:32;17.80;71.10
5461;DHT22;2753;49.196;8.286;2023-06-01T04:16:57;17.80;71.50
5461;DHT22;2753;49.196;8.286;2023-06-01T04:19:24;17.80;71.60
5461;DHT22;2753;49.196;8.286;2023-06-01T04:21:50;17.90;71.60
5461;DHT22;2753;49.196;8.286;2023-06-01T04:24:16;17.90;71.40
5461;DHT22;2753;49.196;8.286;2023-06-01T04:26:43;17.90;71.60
5461;DHT22;2753;49.196;8.286;2023-06-01T04:29:13;17.90;71.80
5461;DHT22;2753;49.196;8.286;2023-06-01T04:31:39;17.80;71.80
5461;DHT22;2753;49.196;8.286;2023-06-01T04:34:06;17.80;72.00
5461;DHT22;2753;49.196;8.286;2023-06-01T04:36:35;17.90;72.10
5461;DHT22;2753;49.196;8.286;2023-06-01T04:39:05;17.90;71.60
5461;DHT22;2753;49.196;8.286;2023-06-01T04:41:33;17.90;72.80
5461;DHT22;2753;49.196;8.286;2023-06-01T04:44:00;17.90;72.10
5461;DHT22;2753;49.196;8.286;2023-06-01T04:46:27;17.90;72.30
5461;DHT22;2753;49.196;8.286;2023-06-01T04:48:53;17.90;73.20
5461;DHT22;2753;49.196;8.286;2023-06-01T04:51:22;17.80;73.10
5461;DHT22;2753;49.196;8.286;2023-06-01T04:53:50;17.80;72.80
5461;DHT22;2753;49.196;8.286;2023-06-01T04:56:21;17.90;72.90
5461;DHT22;2753;49.196;8.286;2023-06-01T04:58:52;17.90;72.90
5461;DHT22;2753;49.196;8.286;2023-06-01T05:01:19;17.90;73.10
5461;DHT22;2753;49.196;8.286;2023-06-01T05:03:45;17.90;73.00
5461;DHT22;2753;49.196;8.286;2023-06-01T05:06:12;18.00;73.10
5461;DHT22;2753;49.196;8.286;2023-06-01T05:08:41;18.10;72.90
5461;DHT22;2753;49.196;8.286;2023-06-01T05:11:09;18.10;73.00
5461;DHT22;2753;49.196;8.286;2023-06-01T05:13:38;18.10;73.50
5461;DHT22;2753;49.196;8.286;2023-06-01T05:16:05;18.10;73.60
5461;DHT22;2753;49.196;8.286;2023-06-01T05:18:32;18.10;73.40
5461;DHT22;2753;49.196;8.286;2023-06-01T05:20:58;18.10;73.60
5461;DHT22;2753;49.196;8.286;2023-06-01T05:23:24;18.10;73.30
5461;DHT22;2753;49.196;8.286;2023-06-01T05:25:51;18.10;74.80
5461;DHT22;2753;49.196;8.286;2023-06-01T05:28:17;18.10;74.00
5461;DHT22;2753;49.196;8.286;2023-06-01T05:30:43;18.10;74.00
5461;DHT22;2753;49.196;8.286;2023-06-01T05:33:08;18.20;74.20
5461;DHT22;2753;49.196;8.286;2023-06-01T05:35:34;18.20;74.40
5461;DHT22;2753;49.196;8.286;2023-06-01T05:38:00;18.20;73.80
5461;DHT22;2753;49.196;8.286;2023-06-01T05:40:26;18.20;74.00
5461;DHT22;2753;49.196;8.286;2023-06-01T05:42:51;18.30;74.40
5461;DHT22;2753;49.196;8.286;2023-06-01T05:45:17;18.30;74.10
5461;DHT22;2753;49.196;8.286;2023-06-01T05:47:43;18.30;74.00
5461;DHT22;2753;49.196;8.286;2023-06-01T05:50:09;18.30;74.40
5461;DHT22;2753;49.196;8.286;2023-06-01T05:52:35;18.30;74.10
5461;DHT22;2753;49.196;8.286;2023-06-01T05:55:02;18.40;74.20
5461;DHT22;2753;49.196;8.286;2023-06-01T05:57:30;18.40;74.00
5461;DHT22;2753;49.196;8.286;2023-06-01T05:59:55;18.40;74.10
5461;DHT22;2753;49.196;8.286;2023-06-01T06:02:21;18.50;73.90
5461;DHT22;2753;49.196;8.286;2023-06-01T06:04:47;18.50;74.10
5461;DHT22;2753;49.196;8.286;2023-06-01T06:07:12;18.50;73.80
5461;DHT22;2753;49.196;8.286;2023-06-01T06:09:38;18.60;74.30
5461;DHT22;2753;49.196;8.286;2023-06-01T06:12:04;18.70;74.50
5461;DHT22;2753;49.196;8.286;2023-06-01T06:14:31;18.70;73.90
5461;DHT22;2753;49.196;8.286;2023-06-01T06:16:57;18.70;73.60
5461;DHT22;2753;49.196;8.286;2023-06-01T06:19:22;18.70;73.80
5461;DHT22;2753;49.196;8.286;2023-06-01T06:21:48;18.80;73.90
5461;DHT22;2753;49.196;8.286;2023-06-01T06:24:14;18.80;73.80
5461;DHT22;2753;49.196;8.286;2023-06-01T06:26:40;18.80;74.40
5461;DHT22;2753;49.196;8.286;2023-06-01T06:29:09;18.90;74.00
5461;DHT22;2753;49.196;8.286;2023-06-01T06:31:36;19.00;73.90
5461;DHT22;2753;49.196;8.286;2023-06-01T06:34:01;19.00;74.00
5461;DHT22;2753;49.196;8.286;2023-06-01T06:36:27;19.10;73.70
5461;DHT22;2753;49.196;8.286;2023-06-01T06:38:53;19.10;73.80
5461;DHT22;2753;49.196;8.286;2023-06-01T06:41:18;19.20;73.50
5461;DHT22;2753;49.196;8.286;2023-06-01T06:43:44;19.30;73.60
5461;DHT22;2753;49.196;8.286;2023-06-01T06:46:10;19.40;73.30
5461;DHT22;2753;49.196;8.286;2023-06-01T06:48:35;19.60;73.40
5461;DHT22;2753;49.196;8.286;2023-06-01T06:51:02;19.80;73.40
5461;DHT22;2753;49.196;8.286;2023-06-01T06:53:28;20.10;72.40
5461;DHT22;2753;49.196;8.286;2023-06-01T06:55:54;20.30;72.20
5461;DHT22;2753;49.196;8.286;2023-06-01T06:58:19;20.50;71.70
5461;DHT22;2753;49.196;8.286;2023-06-01T07:00:45;20.60;71.60
5461;DHT22;2753;49.196;8.286;2023-06-01T07:03:11;20.60;71.50
5461;DHT22;2753;49.196;8.286;2023-06-01T07:05:37;20.80;71.50
5461;DHT22;2753;49.196;8.286;2023-06-01T07:08:02;20.90;71.10
5461;DHT22;2753;49.196;8.286;2023-06-01T07:10:28;21.10;70.80
5461;DHT22;2753;49.196;8.286;2023-06-01T07:12:55;21.20;70.70
5461;DHT22;2753;49.196;8.286;2023-06-01T07:15:21;21.40;70.40
5461;DHT22;2753;49.196;8.286;2023-06-01T07:17:47;21.50;70.30
5461;DHT22;2753;49.196;8.286;2023-06-01T07:20:12;21.60;70.60
5461;DHT22;2753;49.196;8.286;2023-06-01T07:22:39;21.70;70.50
5461;DHT22;2753;49.196;8.286;2023-06-01T07:25:05;21.80;70.30
5461;DHT22;2753;49.196;8.286;2023-06-01T07:27:31;22.10;69.80
5461;DHT22;2753;49.196;8.286;2023-06-01T07:30:04;22.30;69.10
5461;DHT22;2753;49.196;8.286;2023-06-01T07:32:30;22.50;68.60
5461;DHT22;2753;49.196;8.286;2023-06-01T07:34:56;22.70;68.30
5461;DHT22;2753;49.196;8.286;2023-06-01T07:37:25;23.00;67.80
5461;DHT22;2753;49.196;8.286;2023-06-01T07:39:53;23.10;66.60
5461;DHT22;2753;49.196;8.286;2023-06-01T07:42:20;23.30;66.90
5461;DHT22;2753;49.196;8.286;2023-06-01T07:44:46;23.50;66.10
5461;DHT22;2753;49.196;8.286;2023-06-01T07:47:12;23.70;65.90
5461;DHT22;2753;49.196;8.286;2023-06-01T07:49:38;23.90;65.10
5461;DHT22;2753;49.196;8.286;2023-06-01T07:52:05;24.00;64.80
5461;DHT22;2753;49.196;8.286;2023-06-01T07:54:32;24.10;64.80
5461;DHT22;2753;49.196;8.286;2023-06-01T07:56:58;24.20;64.20
5461;DHT22;2753;49.196;8.286;2023-06-01T07:59:24;24.40;63.30
5461;DHT22;2753;49.196;8.286;2023-06-01T08:01:50;24.40;63.10
5461;DHT22;2753;49.196;8.286;2023-06-01T08:04:20;24.60;63.20
5461;DHT22;2753;49.196;8.286;2023-06-01T08:06:46;24.80;61.80
5461;DHT22;2753;49.196;8.286;2023-06-01T08:09:12;25.00;61.80
5461;DHT22;2753;49.196;8.286;2023-06-01T08:11:38;25.20;61.30
5461;DHT22;2753;49.196;8.286;2023-06-01T08:14:04;25.30;60.70
5461;DHT22;2753;49.196;8.286;2023-06-01T08:16:33;25.30;60.00
5461;DHT22;2753;49.196;8.286;2023-06-01T08:18:59;25.30;60.90
5461;DHT22;2753;49.196;8.286;2023-06-01T08:21:26;25.30;59.70
5461;DHT22;2753;49.196;8.286;2023-06-01T08:23:53;25.50;59.50
5461;DHT22;2753;49.196;8.286;2023-06-01T08:26:23;26.00;56.70
5461;DHT22;2753;49.196;8.286;2023-06-01T08:28:49;26.20;58.20
5461;DHT22;2753;49.196;8.286;2023-06-01T08:31:19;26.10;58.00
5461;DHT22;2753;49.196;8.286;2023-06-01T08:33:46;26.00;57.20
5461;DHT22;2753;49.196;8.286;2023-06-01T08:36:11;26.10;57.80
5461;DHT22;2753;49.196;8.286;2023-06-01T08:38:38;26.40;57.80
5461;DHT22;2753;49.196;8.286;2023-06-01T08:43:44;27.00;56.80
5461;DHT22;2753;49.196;8.286;2023-06-01T08:46:13;27.00;56.20
5461;DHT22;2753;49.196;8.286;2023-06-01T08:48:43;27.10;55.50
5461;DHT22;2753;49.196;8.286;2023-06-01T08:51:09;27.00;55.50
5461;DHT22;2753;49.196;8.286;2023-06-01T08:53:36;27.20;55.10
5461;DHT22;2753;49.196;8.286;2023-06-01T08:56:04;27.20;56.30
5461;DHT22;2753;49.196;8.286;2023-06-01T08:58:30;27.20;55.70
5461;DHT22;2753;49.196;8.286;2023-06-01T09:00:56;27.10;55.70
5461;DHT22;2753;49.196;8.286;2023-06-01T09:03:23;27.10;56.40
5461;DHT22;2753;49.196;8.286;2023-06-01T09:05:49;27.30;55.90
5461;DHT22;2753;49.196;8.286;2023-06-01T09:08:16;27.60;54.00
5461;DHT22;2753;49.196;8.286;2023-06-01T09:10:42;27.60;53.80
5461;DHT22;2753;49.196;8.286;2023-06-01T09:13:08;27.60;53.80
5461;DHT22;2753;49.196;8.286;2023-06-01T09:15:34;27.60;54.40
5461;DHT22;2753;49.196;8.286;2023-06-01T09:18:08;27.60;53.80
5461;DHT22;2753;49.196;8.286;2023-06-01T09:20:36;27.30;54.60
5461;DHT22;2753;49.196;8.286;2023-06-01T09:23:03;27.20;53.90
5461;DHT22;2753;49.196;8.286;2023-06-01T09:25:33;27.20;53.90
5461;DHT22;2753;49.196;8.286;2023-06-01T09:28:00;27.20;53.30
5461;DHT22;2753;49.196;8.286;2023-06-01T09:30:40;27.30;53.60
5461;DHT22;2753;49.196;8.286;2023-06-01T09:33:13;27.20;53.50
5461;DHT22;2753;49.196;8.286;2023-06-01T09:35:47;27.00;54.00
5461;DHT22;2753;49.196;8.286;2023-06-01T09:38:25;27.00;54.50
5461;DHT22;2753;49.196;8.286;2023-06-01T09:41:00;27.10;54.50
5461;DHT22;2753;49.196;8.286;2023-06-01T09:43:26;27.20;54.50
5461;DHT22;2753;49.196;8.286;2023-06-01T09:46:09;27.20;54.60
5461;DHT22;2753;49.196;8.286;2023-06-01T09:48:35;27.10;54.90
5461;DHT22;2753;49.196;8.286;2023-06-01T09:51:02;27.20;53.60
5461;DHT22;2753;49.196;8.286;2023-06-01T09:53:27;27.30;53.20
5461;DHT22;2753;49.196;8.286;2023-06-01T09:55:58;27.30;53.10
5461;DHT22;2753;49.196;8.286;2023-06-01T09:58:24;27.20;52.90
5461;DHT22;2753;49.196;8.286;2023-06-01T10:00:51;27.00;53.20
5461;DHT22;2753;49.196;8.286;2023-06-01T10:03:18;27.00;53.70
5461;DHT22;2753;49.196;8.286;2023-06-01T10:05:45;27.10;54.40
5461;DHT22;2753;49.196;8.286;2023-06-01T10:08:13;27.10;54.40
5461;DHT22;2753;49.196;8.286;2023-06-01T10:10:42;27.20;53.60
5461;DHT22;2753;49.196;8.286;2023-06-01T10:13:09;27.20;54.10
5461;DHT22;2753;49.196;8.286;2023-06-01T10:15:36;27.00;54.40
5461;DHT22;2753;49.196;8.286;2023-06-01T10:18:05;27.00;54.60
5461;DHT22;2753;49.196;8.286;2023-06-01T10:20:35;27.00;54.70
5461;DHT22;2753;49.196;8.286;2023-06-01T10:23:02;27.00;54.10
5461;DHT22;2753;49.196;8.286;2023-06-01T10:25:50;26.80;53.60
5461;DHT22;2753;49.196;8.286;2023-06-01T10:28:18;26.90;54.90
5461;DHT22;2753;49.196;8.286;2023-06-01T10:30:44;27.00;55.60
5461;DHT22;2753;49.196;8.286;2023-06-01T10:33:11;27.00;55.20
5461;DHT22;2753;49.196;8.286;2023-06-01T10:35:50;27.00;54.70
5461;DHT22;2753;49.196;8.286;2023-06-01T10:40:45;27.00;54.30
5461;DHT22;2753;49.196;8.286;2023-06-01T10:46:37;26.90;54.20
5461;DHT22;2753;49.196;8.286;2023-06-01T10:49:03;26.90;54.40
5461;DHT22;2753;49.196;8.286;2023-06-01T10:51:29;27.00;53.80
5461;DHT22;2753;49.196;8.286;2023-06-01T10:54:37;26.90;53.30
5461;DHT22;2753;49.196;8.286;2023-06-01T10:57:21;27.00;53.30
5461;DHT22;2753;49.196;8.286;2023-06-01T11:05:45;27.00;52.70
5461;DHT22;2753;49.196;8.286;2023-06-01T11:10:57;27.00;52.60
5461;DHT22;2753;49.196;8.286;2023-06-01T11:13:28;27.00;51.20
5461;DHT22;2753;49.196;8.286;2023-06-01T11:21:21;26.90;51.60
5461;DHT22;2753;49.196;8.286;2023-06-01T11:23:47;26.90;51.50
5461;DHT22;2753;49.196;8.286;2023-06-01T11:26:14;26.90;51.90
5461;DHT22;2753;49.196;8.286;2023-06-01T11:28:44;26.90;51.70
5461;DHT22;2753;49.196;8.286;2023-06-01T11:31:12;26.90;50.80
5461;DHT22;2753;49.196;8.286;2023-06-01T11:33:39;26.90;50.80
5461;DHT22;2753;49.196;8.286;2023-06-01T11:36:07;26.90;51.10
5461;DHT22;2753;49.196;8.286;2023-06-01T11:38:42;26.90;50.60
5461;DHT22;2753;49.196;8.286;2023-06-01T11:41:08;26.90;51.10
5461;DHT22;2753;49.196;8.286;2023-06-01T11:43:35;27.00;50.80
5461;DHT22;2753;49.196;8.286;2023-06-01T11:46:02;27.00;50.90
5461;DHT22;2753;49.196;8.286;2023-06-01T11:49:03;26.90;50.70
5461;DHT22;2753;49.196;8.286;2023-06-01T11:54:52;27.00;50.20
5461;DHT22;2753;49.196;8.286;2023-06-01T11:57:20;26.70;49.50
5461;DHT22;2753;49.196;8.286;2023-06-01T11:59:49;27.00;49.50
5461;DHT22;2753;49.196;8.286;2023-06-01T12:02:36;27.00;49.90
5461;DHT22;2753;49.196;8.286;2023-06-01T12:05:11;27.00;49.70
5461;DHT22;2753;49.196;8.286;2023-06-01T12:07:55;27.00;49.60
5461;DHT22;2753;49.196;8.286;2023-06-01T12:10:24;27.00;49.80
5461;DHT22;2753;49.196;8.286;2023-06-01T12:12:54;27.00;50.30
5461;DHT22;2753;49.196;8.286;2023-06-01T12:15:20;27.00;50.60
5461;DHT22;2753;49.196;8.286;2023-06-01T12:17:51;27.10;49.80
5461;DHT22;2753;49.196;8.286;2023-06-01T12:20:31;27.10;50.30
5461;DHT22;2753;49.196;8.286;2023-06-01T12:22:59;27.10;50.20
5461;DHT22;2753;49.196;8.286;2023-06-01T12:25:26;27.10;50.00
5461;DHT22;2753;49.196;8.286;2023-06-01T12:28:08;27.10;49.90
5461;DHT22;2753;49.196;8.286;2023-06-01T12:30:41;27.10;49.20
5461;DHT22;2753;49.196;8.286;2023-06-01T12:35:56;27.00;48.70
5461;DHT22;2753;49.196;8.286;2023-06-01T12:38:21;27.00;49.10
5461;DHT22;2753;49.196;8.286;2023-06-01T12:41:06;27.00;49.50
5461;DHT22;2753;49.196;8.286;2023-06-01T12:43:34;27.20;49.50
5461;DHT22;2753;49.196;8.286;2023-06-01T12:46:00;27.20;49.60
5461;DHT22;2753;49.196;8.286;2023-06-01T12:48:34;27.20;48.90
5461;DHT22;2753;49.196;8.286;2023-06-01T12:51:02;27.10;49.30
5461;DHT22;2753;49.196;8.286;2023-06-01T12:53:29;27.20;49.20
5461;DHT22;2753;49.196;8.286;2023-06-01T12:55:55;27.20;49.30
5461;DHT22;2753;49.196;8.286;2023-06-01T12:58:21;27.20;49.50
5461;DHT22;2753;49.196;8.286;2023-06-01T13:00:47;27.30;49.20
5461;DHT22;2753;49.196;8.286;2023-06-01T13:03:14;27.20;48.80
5461;DHT22;2753;49.196;8.286;2023-06-01T13:05:43;27.30;50.00
5461;DHT22;2753;49.196;8.286;2023-06-01T13:08:12;27.30;49.00
5461;DHT22;2753;49.196;8.286;2023-06-01T13:10:38;27.20;48.20
5461;DHT22;2753;49.196;8.286;2023-06-01T13:13:05;27.10;48.10
5461;DHT22;2753;49.196;8.286;2023-06-01T13:15:32;27.10;48.50
5461;DHT22;2753;49.196;8.286;2023-06-01T13:17:58;27.20;49.10
5461;DHT22;2753;49.196;8.286;2023-06-01T13:20:40;27.20;48.80
5461;DHT22;2753;49.196;8.286;2023-06-01T13:23:06;27.30;49.00
5461;DHT22;2753;49.196;8.286;2023-06-01T13:25:33;27.30;49.00
5461;DHT22;2753;49.196;8.286;2023-06-01T13:27:59;27.40;48.70
5461;DHT22;2753;49.196;8.286;2023-06-01T13:30:26;27.40;48.40
5461;DHT22;2753;49.196;8.286;2023-06-01T13:32:54;27.40;48.30
5461;DHT22;2753;49.196;8.286;2023-06-01T13:35:20;27.40;48.90
5461;DHT22;2753;49.196;8.286;2023-06-01T13:37:46;27.40;48.80
5461;DHT22;2753;49.196;8.286;2023-06-01T13:40:13;27.40;48.30
5461;DHT22;2753;49.196;8.286;2023-06-01T13:42:38;27.40;47.80
5461;DHT22;2753;49.196;8.286;2023-06-01T13:45:04;27.40;47.40
5461;DHT22;2753;49.196;8.286;2023-06-01T13:47:37;27.30;47.60
5461;DHT22;2753;49.196;8.286;2023-06-01T13:50:03;27.30;48.00
5461;DHT22;2753;49.196;8.286;2023-06-01T13:52:30;27.30;47.70
5461;DHT22;2753;49.196;8.286;2023-06-01T13:54:56;27.40;48.00
5461;DHT22;2753;49.196;8.286;2023-06-01T13:57:22;27.40;47.50
5461;DHT22;2753;49.196;8.286;2023-06-01T13:59:48;27.40;47.90
5461;DHT22;2753;49.196;8.286;2023-06-01T14:02:14;27.50;47.60
5461;DHT22;2753;49.196;8.286;2023-06-01T14:04:40;27.40;47.40
5461;DHT22;2753;49.196;8.286;2023-06-01T14:07:09;27.50;47.10
5461;DHT22;2753;49.196;8.286;2023-06-01T14:09:36;27.50;47.50
5461;DHT22;2753;49.196;8.286;2023-06-01T14:12:02;27.60;47.50
5461;DHT22;2753;49.196;8.286;2023-06-01T14:14:28;27.60;46.90
5461;DHT22;2753;49.196;8.286;2023-06-01T14:16:53;27.60;47.00
5461;DHT22;2753;49.196;8.286;2023-06-01T14:19:19;27.50;47.20
5461;DHT22;2753;49.196;8.286;2023-06-01T14:21:45;27.50;47.60
5461;DHT22;2753;49.196;8.286;2023-06-01T14:24:11;27.50;47.20
5461;DHT22;2753;49.196;8.286;2023-06-01T14:26:36;27.50;46.70
5461;DHT22;2753;49.196;8.286;2023-06-01T14:29:02;27.60;46.50
5461;DHT22;2753;49.196;8.286;2023-06-01T14:34:26;27.60;46.00
5461;DHT22;2753;49.196;8.286;2023-06-01T14:36:51;27.50;45.70
5461;DHT22;2753;49.196;8.286;2023-06-01T14:39:17;27.50;46.10
5461;DHT22;2753;49.196;8.286;2023-06-01T14:41:43;27.50;46.10
5461;DHT22;2753;49.196;8.286;2023-06-01T14:44:08;27.50;46.40
5461;DHT22;2753;49.196;8.286;2023-06-01T14:46:34;27.50;46.00
5461;DHT22;2753;49.196;8.286;2023-06-01T14:49:00;27.50;46.10
5461;DHT22;2753;49.196;8.286;2023-06-01T14:51:28;27.50;46.20
5461;DHT22;2753;49.196;8.286;2023-06-01T14:53:53;27.50;46.50
5461;DHT22;2753;49.196;8.286;2023-06-01T14:56:19;27.50;46.50
5461;DHT22;2753;49.196;8.286;2023-06-01T14:58:46;27.40;46.50
5461;DHT22;2753;49.196;8.286;2023-06-01T15:01:12;27.40;46.90
5461;DHT22;2753;49.196;8.286;2023-06-01T15:03:38;27.40;46.90
5461;DHT22;2753;49.196;8.286;2023-06-01T15:06:04;27.40;47.30
5461;DHT22;2753;49.196;8.286;2023-06-01T15:08:29;27.40;47.30
5461;DHT22;2753;49.196;8.286;2023-06-01T15:10:55;27.50;47.70
5461;DHT22;2753;49.196;8.286;2023-06-01T15:13:21;27.50;47.40
5461;DHT22;2753;49.196;8.286;2023-06-01T15:15:47;27.50;47.40
5461;DHT22;2753;49.196;8.286;2023-06-01T15:18:12;27.50;47.00
5461;DHT22;2753;49.196;8.286;2023-06-01T15:20:38;27.50;47.40
5461;DHT22;2753;49.196;8.286;2023-06-01T15:23:04;27.60;47.50
5461;DHT22;2753;49.196;8.286;2023-06-01T15:25:29;27.60;47.60
5461;DHT22;2753;49.196;8.286;2023-06-01T15:28:01;27.50;47.50
5461;DHT22;2753;49.196;8.286;2023-06-01T15:30:27;27.60;47.30
5461;DHT22;2753;49.196;8.286;2023-06-01T15:32:56;27.50;47.40
5461;DHT22;2753;49.196;8.286;2023-06-01T15:35:22;27.50;47.10
5461;DHT22;2753;49.196;8.286;2023-06-01T15:37:48;27.50;47.40
5461;DHT22;2753;49.196;8.286;2023-06-01T15:40:14;27.50;47.40
5461;DHT22;2753;49.196;8.286;2023-06-01T15:42:40;27.50;46.50
5461;DHT22;2753;49.196;8.286;2023-06-01T15:45:10;27.50;47.10
5461;DHT22;2753;49.196;8.286;2023-06-01T15:47:36;27.50;47.20
5461;DHT22;2753;49.196;8.286;2023-06-01T15:50:02;27.50;47.00
5461;DHT22;2753;49.196;8.286;2023-06-01T15:52:32;27.50;47.10
5461;DHT22;2753;49.196;8.286;2023-06-01T15:55:10;27.50;47.00
5461;DHT22;2753;49.196;8.286;2023-06-01T15:57:39;27.50;47.10
5461;DHT22;2753;49.196;8.286;2023-06-01T16:00:05;27.50;46.90
5461;DHT22;2753;49.196;8.286;2023-06-01T16:02:32;27.50;46.70
5461;DHT22;2753;49.196;8.286;2023-06-01T16:04:57;27.50;46.80
5461;DHT22;2753;49.196;8.286;2023-06-01T16:07:23;27.40;46.40
5461;DHT22;2753;49.196;8.286;2023-06-01T16:09:49;27.40;46.00
5461;DHT22;2753;49.196;8.286;2023-06-01T16:12:18;27.40;46.50
5461;DHT22;2753;49.196;8.286;2023-06-01T16:14:46;27.40;47.30
5461;DHT22;2753;49.196;8.286;2023-06-01T16:17:12;27.10;46.50
5461;DHT22;2753;49.196;8.286;2023-06-01T16:19:42;27.40;46.50
5461;DHT22;2753;49.196;8.286;2023-06-01T16:22:08;27.40;46.90
5461;DHT22;2753;49.196;8.286;2023-06-01T16:24:35;27.40;46.80
5461;DHT22;2753;49.196;8.286;2023-06-01T16:27:03;27.40;46.40
5461;DHT22;2753;49.196;8.286;2023-06-01T16:29:29;27.40;46.20
5461;DHT22;2753;49.196;8.286;2023-06-01T16:31:55;27.40;46.10
5461;DHT22;2753;49.196;8.286;2023-06-01T16:34:20;27.30;46.10
5461;DHT22;2753;49.196;8.286;2023-06-01T16:36:46;27.30;46.40
5461;DHT22;2753;49.196;8.286;2023-06-01T16:39:12;27.30;46.60
5461;DHT22;2753;49.196;8.286;2023-06-01T16:41:39;27.30;46.70
5461;DHT22;2753;49.196;8.286;2023-06-01T16:44:05;27.30;46.20
5461;DHT22;2753;49.196;8.286;2023-06-01T16:46:30;27.30;45.90